タシュケント の空港の天気 - METARとTAF

タシケント空港 ( UTTT / TAS ) - ウズベキスタン タシュケント
飛行場実況気象(Metar)
観測時間05/28 05:00 UZT (05/28 00:00 UTC)
風向・風速東南東 3m/s
視程10km以上
天気現象
なし
気温24℃
湿度57%
気圧1007hPa
METARUTTT 280000Z 11006KT 090V180 CAVOK 24/15 Q1007 R08R/CLRD70 NOSIG
過去の天気等 Google飛行場航空写真 Wunderground天気予報

過去48時間のMETAR

飛行場予報(TAF)
発表時間: 5/28 04:00 UZT (5/27 23:00 UTC)
予報対象時間: 28日5時 UZT ~ 29日5時 UZT
風向・風速東 5m/s
視程7000m
なし
28日11時 UZT ~ 28日20時 UZT に一時的に
風向・風速西 8m/s
28日11時 UZT ~ 28日20時 UZT に 確率 40% で一時的に
天気現象
全天の4割程度の積乱雲 雲底高度 1830m
TAF UTTT 272300Z 2800/2824 10010KT 7000 NSC TX37/2810Z
TEMPO 2806/2815 26015KT
PROB40 TEMPO 2806/2815 TS SCT060CB